Weather at Kaben Airport

Public forecast

Using degrees Celsius for public forecast. Weather courtesy of forecast.io.

Closest aviation weather report (METAR) to Kaben Airport

Report is more than 6 hours old.

Closest report is Marshall Islands International Airport, 113.1 nm (209.5 km) SSE.

2024/06/16 06:50 (retrieved 12 hours ago)

PKMJ 160650Z 05013K 15SM FEW015 SCT050 BKN120 OVC300 29/25 A2984 RMK LAST

Closest aviation forecast (TAF) to Kaben Airport

Closest forecast is Marshall Islands International Airport, 113.1 nm (209.5 km) SSE.

2024/06/16 18:33 (retrieved 9 minutes ago)

TAF TAF PKMJ 161728Z 1618/1718 08008KT P6SM VCSH SCT015 SCT050 BKN130 FM162200 09011KT P6SM VCSH SCT015 BKN045 BKN120